Time;durP1;ratioP1;P1;durP2;ratioP2;P2;SDS_P1;SDS_P2;PMS_P1;PMS_P2;Temp;Humidity;BMP_temperature;BMP_pressure;BME280_temperature;BME280_humidity;BME280_pressure;Samples;Min_cycle;Max_cycle;Signal;HPM_P1;HPM_P2
2021/09/21 00:01:09;;;;;;;11.75;9.90;;;13.80;99.90;;;;;;5051555;28;20124;-72
2021/09/21 00:03:36;;;;;;;10.52;9.43;;;13.70;99.90;;;;;;5053033;28;20123;-71
2021/09/21 00:06:05;;;;;;;11.82;10.20;;;13.80;99.90;;;;;;5052644;28;20753;-72
2021/09/21 00:08:32;;;;;;;14.10;10.38;;;13.80;99.90;;;;;;5051610;28;20029;-72
2021/09/21 00:10:59;;;;;;;11.98;10.48;;;13.80;99.90;;;;;;5051596;28;20424;-71
2021/09/21 00:13:26;;;;;;;11.80;10.27;;;13.80;99.90;;;;;;5052744;28;20481;-71
2021/09/21 00:15:52;;;;;;;14.65;9.95;;;13.70;99.90;;;;;;5052355;28;20095;-72
2021/09/21 00:18:18;;;;;;;14.05;11.18;;;13.70;99.90;;;;;;5052870;28;20025;-73
2021/09/21 00:20:44;;;;;;;11.38;10.27;;;13.70;99.90;;;;;;5052603;28;20025;-71
2021/09/21 00:23:10;;;;;;;10.32;9.20;;;13.80;99.90;;;;;;5051519;28;20029;-70
2021/09/21 00:25:36;;;;;;;13.20;10.13;;;13.70;99.90;;;;;;5051499;28;20029;-71
2021/09/21 00:28:03;;;;;;;12.43;10.70;;;13.70;99.90;;;;;;5051425;28;20363;-72
2021/09/21 00:30:30;;;;;;;12.50;9.73;;;13.70;99.90;;;;;;5051525;28;20049;-71
2021/09/21 00:33:03;;;;;;;13.98;10.43;;;13.70;99.90;;;;;;5051404;28;20021;-71
2021/09/21 00:35:31;;;;;;;16.65;10.80;;;13.60;99.90;;;;;;5051329;28;20040;-72
2021/09/21 00:37:58;;;;;;;11.30;9.10;;;13.60;99.90;;;;;;5051372;28;20453;-70
2021/09/21 00:40:24;;;;;;;12.52;10.15;;;13.70;99.90;;;;;;5051354;28;20473;-69
2021/09/21 00:42:51;;;;;;;13.13;10.35;;;13.60;99.90;;;;;;5051308;28;20056;-69
2021/09/21 00:45:24;;;;;;;13.50;10.20;;;13.70;99.90;;;;;;5052902;28;20119;-69
2021/09/21 00:47:54;;;;;;;11.00;9.73;;;13.70;99.90;;;;;;5051311;28;20492;-70
2021/09/21 00:50:23;;;;;;;14.07;10.10;;;13.70;99.90;;;;;;5052610;28;20028;-69
2021/09/21 00:52:49;;;;;;;14.52;10.18;;;13.70;99.90;;;;;;5052200;28;20104;-70
2021/09/21 00:55:19;;;;;;;10.73;9.07;;;13.70;99.90;;;;;;5051077;28;20034;-71
2021/09/21 00:57:46;;;;;;;11.00;9.52;;;13.70;99.90;;;;;;5051205;28;20029;-70
2021/09/21 01:00:14;;;;;;;13.88;9.60;;;13.70;99.90;;;;;;5052200;28;20041;-71
2021/09/21 01:02:41;;;;;;;17.38;11.35;;;13.70;99.90;;;;;;5052408;28;20021;-71
2021/09/21 01:05:08;;;;;;;11.65;9.63;;;13.60;99.90;;;;;;5052410;28;20033;-71
2021/09/21 01:07:38;;;;;;;11.35;9.50;;;13.60;99.90;;;;;;5051014;28;20381;-71
2021/09/21 01:10:24;;;;;;;14.07;10.85;;;13.60;99.90;;;;;;5051358;28;20059;-70
2021/09/21 01:12:51;;;;;;;17.45;11.45;;;13.60;99.90;;;;;;5054888;28;20021;-72
2021/09/21 01:15:17;;;;;;;12.15;10.43;;;13.60;99.90;;;;;;5055858;28;20063;-72
2021/09/21 01:17:42;;;;;;;11.60;10.40;;;13.60;99.90;;;;;;5054584;28;20033;-72
2021/09/21 01:20:10;;;;;;;13.40;9.95;;;13.60;99.90;;;;;;5055916;28;20060;-72
2021/09/21 01:22:35;;;;;;;11.98;10.63;;;13.60;99.90;;;;;;5056047;28;20029;-72
2021/09/21 01:25:02;;;;;;;12.32;10.40;;;13.50;99.90;;;;;;5055487;28;20029;-72
2021/09/21 01:27:28;;;;;;;12.07;10.27;;;13.60;99.90;;;;;;5054412;28;20408;-71
2021/09/21 01:29:54;;;;;;;12.73;9.98;;;13.60;99.90;;;;;;5055717;28;20021;-72
2021/09/21 01:32:21;;;;;;;15.57;9.90;;;13.50;99.90;;;;;;5055868;28;20021;-71
2021/09/21 01:34:48;;;;;;;15.43;11.02;;;13.50;99.90;;;;;;5055513;28;20033;-72
2021/09/21 01:37:16;;;;;;;14.40;10.38;;;13.60;99.90;;;;;;5054247;28;20033;-72
2021/09/21 01:39:43;;;;;;;11.60;9.90;;;13.60;99.90;;;;;;5055524;28;20024;-71
2021/09/21 01:42:10;;;;;;;13.98;9.90;;;13.60;99.90;;;;;;5054184;28;20029;-72
2021/09/21 01:44:36;;;;;;;16.50;10.57;;;13.60;99.90;;;;;;5055437;28;20440;-71
2021/09/21 01:47:05;;;;;;;11.85;10.55;;;13.60;99.90;;;;;;5054061;28;20123;-72
2021/09/21 01:49:42;;;;;;;11.40;9.77;;;13.60;99.90;;;;;;5055008;28;20500;-71
2021/09/21 01:52:15;;;;;;;15.18;10.35;;;13.60;99.90;;;;;;5055337;28;20017;-72
2021/09/21 02:00:21;;;;;;;11.23;9.93;;;13.50;99.90;;;;;;5054814;28;20043;-71
2021/09/21 02:02:47;;;;;;;11.23;10.00;;;13.50;99.90;;;;;;5055038;28;20029;-73
2021/09/21 02:05:12;;;;;;;14.65;9.73;;;13.50;99.90;;;;;;5055061;28;20039;-71
2021/09/21 02:07:39;;;;;;;12.98;9.32;;;13.50;99.90;;;;;;5053683;28;20029;-73
2021/09/21 02:10:05;;;;;;;11.80;9.85;;;13.50;99.90;;;;;;5053649;28;20492;-70
2021/09/21 02:12:31;;;;;;;11.88;10.27;;;13.50;99.90;;;;;;5055128;28;20116;-73
2021/09/21 02:15:00;;;;;;;10.90;9.70;;;13.50;99.90;;;;;;5054383;28;20214;-72
2021/09/21 02:17:25;;;;;;;12.27;9.10;;;13.50;99.90;;;;;;5054787;28;20017;-71
2021/09/21 02:19:52;;;;;;;11.85;10.52;;;13.50;99.90;;;;;;5054819;28;20032;-73
2021/09/21 02:22:18;;;;;;;12.85;10.20;;;13.50;99.90;;;;;;5053408;28;20431;-72
2021/09/21 02:24:44;;;;;;;14.32;10.48;;;13.40;99.90;;;;;;5054414;28;20033;-72
2021/09/21 02:27:10;;;;;;;15.60;10.40;;;13.50;99.90;;;;;;5054903;28;20070;-72
2021/09/21 02:29:36;;;;;;;13.43;10.63;;;13.40;99.90;;;;;;5054779;28;20040;-73
2021/09/21 02:32:02;;;;;;;14.30;10.70;;;13.40;99.90;;;;;;5054580;28;20029;-71
2021/09/21 02:34:28;;;;;;;14.52;10.45;;;13.40;99.90;;;;;;5054078;28;20547;-72
2021/09/21 02:36:54;;;;;;;15.10;10.20;;;13.40;99.90;;;;;;5053107;28;20477;-72
2021/09/21 02:39:19;;;;;;;17.02;11.23;;;13.40;99.90;;;;;;5053037;28;20032;-70
2021/09/21 02:41:45;;;;;;;14.05;10.35;;;13.40;99.90;;;;;;5054046;28;20031;-72
2021/09/21 02:44:11;;;;;;;13.32;10.73;;;13.40;99.90;;;;;;5052934;28;20025;-70
2021/09/21 02:46:37;;;;;;;13.38;11.18;;;13.40;99.90;;;;;;5052913;28;20036;-72
2021/09/21 02:49:06;;;;;;;14.80;10.60;;;13.40;99.90;;;;;;5054184;28;20036;-71
2021/09/21 02:51:32;;;;;;;13.68;10.25;;;13.40;99.90;;;;;;5052854;28;20377;-71
2021/09/21 02:53:57;;;;;;;13.05;9.98;;;13.40;99.90;;;;;;5053737;28;20031;-69
2021/09/21 02:56:23;;;;;;;11.20;9.90;;;13.40;99.90;;;;;;5054034;28;20462;-72
2021/09/21 02:58:49;;;;;;;12.77;9.98;;;13.40;99.90;;;;;;5053929;28;20070;-71
2021/09/21 03:01:15;;;;;;;13.07;9.85;;;13.40;99.90;;;;;;5052390;28;20041;-70
2021/09/21 03:03:48;;;;;;;16.27;10.00;;;13.40;99.90;;;;;;5053964;28;20025;-69
2021/09/21 03:06:31;;;;;;;12.05;9.95;;;13.40;99.90;;;;;;5053915;28;20036;-69
2021/09/21 03:09:08;;;;;;;12.73;10.63;;;13.40;99.90;;;;;;5053879;28;20025;-69
2021/09/21 03:11:40;;;;;;;12.82;10.63;;;13.40;99.90;;;;;;5053808;28;20056;-68
2021/09/21 03:19:26;;;;;;;13.30;9.75;;;13.30;99.90;;;;;;5053668;28;20055;-72
2021/09/21 03:21:57;;;;;;;13.77;10.00;;;13.30;99.90;;;;;;5053541;28;20378;-72
2021/09/21 03:24:23;;;;;;;12.85;10.55;;;13.30;99.90;;;;;;5052271;28;20029;-73
2021/09/21 03:26:49;;;;;;;14.18;10.40;;;13.30;99.90;;;;;;5052143;28;20124;-69
2021/09/21 03:29:15;;;;;;;13.38;10.80;;;13.30;99.90;;;;;;5052075;28;20071;-73
2021/09/21 03:31:40;;;;;;;16.60;9.93;;;13.30;99.90;;;;;;5053189;28;20435;-72
2021/09/21 03:34:06;;;;;;;13.68;9.98;;;13.30;99.90;;;;;;5052963;28;20017;-72
2021/09/21 03:36:32;;;;;;;10.70;9.55;;;13.30;99.90;;;;;;5052981;28;20025;-71
2021/09/21 03:38:58;;;;;;;14.80;9.68;;;13.30;99.90;;;;;;5051935;28;20021;-70
2021/09/21 03:41:24;;;;;;;15.48;9.90;;;13.30;99.90;;;;;;5051936;28;20028;-71
2021/09/21 03:43:50;;;;;;;14.38;9.43;;;13.30;99.90;;;;;;5052969;28;20021;-71
2021/09/21 03:46:17;;;;;;;12.07;9.52;;;13.30;99.90;;;;;;5051894;28;20139;-71
2021/09/21 03:48:43;;;;;;;11.07;9.23;;;13.30;99.90;;;;;;5051915;28;20075;-71
2021/09/21 03:51:09;;;;;;;11.93;9.15;;;13.30;99.90;;;;;;5051829;28;20029;-72
2021/09/21 03:53:35;;;;;;;9.85;8.80;;;13.30;99.90;;;;;;5051734;28;20035;-73
2021/09/21 03:56:02;;;;;;;11.75;8.70;;;13.30;99.90;;;;;;5051390;28;20474;-72
2021/09/21 03:58:28;;;;;;;13.20;9.38;;;13.30;99.90;;;;;;5053028;28;20037;-72
2021/09/21 04:00:57;;;;;;;16.17;9.68;;;13.40;99.90;;;;;;5053100;28;20520;-71
2021/09/21 04:03:22;;;;;;;12.90;9.90;;;13.30;99.90;;;;;;5053022;28;20079;-72
2021/09/21 04:05:48;;;;;;;12.10;9.23;;;13.30;99.90;;;;;;5053015;28;20424;-70
2021/09/21 04:08:14;;;;;;;16.45;10.18;;;13.30;99.90;;;;;;5051551;28;20029;-72
2021/09/21 04:10:40;;;;;;;12.10;9.65;;;13.30;99.90;;;;;;5051554;28;20041;-75
2021/09/21 04:13:06;;;;;;;15.43;10.25;;;13.30;99.90;;;;;;5053050;28;20052;-70
2021/09/21 04:15:32;;;;;;;15.43;11.13;;;13.30;99.90;;;;;;5052700;28;20494;-73
2021/09/21 04:17:57;;;;;;;14.18;10.48;;;13.30;99.90;;;;;;5052877;28;20033;-73
2021/09/21 04:20:24;;;;;;;16.83;10.60;;;13.30;99.90;;;;;;5052818;28;20026;-73
2021/09/21 04:22:50;;;;;;;13.18;10.93;;;13.30;99.90;;;;;;5052863;28;20025;-74
2021/09/21 04:25:16;;;;;;;15.80;11.07;;;13.30;99.90;;;;;;5052834;28;20039;-73
2021/09/21 04:27:42;;;;;;;22.65;11.75;;;13.30;99.90;;;;;;5052793;28;20075;-73
2021/09/21 04:30:09;;;;;;;16.75;11.30;;;13.30;99.90;;;;;;5052807;28;20424;-76
2021/09/21 04:32:35;;;;;;;11.63;9.85;;;13.30;99.90;;;;;;5052738;28;20082;-73
2021/09/21 04:35:01;;;;;;;15.30;9.80;;;13.40;99.90;;;;;;5052613;28;20052;-73
2021/09/21 04:37:27;;;;;;;13.23;10.23;;;13.40;99.90;;;;;;5051274;28;20111;-73
2021/09/21 04:39:53;;;;;;;17.45;10.65;;;13.40;99.90;;;;;;5051345;28;20037;-71
2021/09/21 04:42:22;;;;;;;14.68;10.70;;;13.40;99.90;;;;;;5052667;28;20033;-73
2021/09/21 04:44:48;;;;;;;19.02;11.13;;;13.40;99.90;;;;;;5052623;28;20033;-72
2021/09/21 04:47:14;;;;;;;16.55;11.05;;;13.40;99.90;;;;;;5054338;28;20032;-72
2021/09/21 04:49:39;;;;;;;19.52;12.10;;;13.40;99.90;;;;;;5056492;28;20029;-74
2021/09/21 04:52:05;;;;;;;14.57;10.98;;;13.40;99.90;;;;;;5056418;28;20028;-72
2021/09/21 04:54:31;;;;;;;15.38;10.45;;;13.40;99.90;;;;;;5056009;28;20037;-72
2021/09/21 04:56:57;;;;;;;16.58;11.68;;;13.40;99.90;;;;;;5054999;28;20157;-72
2021/09/21 04:59:23;;;;;;;17.85;11.85;;;13.30;99.90;;;;;;5056294;28;20029;-72
2021/09/21 05:01:49;;;;;;;15.90;11.13;;;13.40;99.90;;;;;;5056290;28;20100;-71
2021/09/21 05:04:15;;;;;;;16.33;11.70;;;13.40;99.90;;;;;;5055903;28;20163;-73
2021/09/21 05:06:40;;;;;;;17.13;11.80;;;13.40;99.90;;;;;;5056019;28;20029;-73
2021/09/21 05:09:12;;;;;;;16.73;11.60;;;13.40;99.90;;;;;;5056101;28;20044;-72
2021/09/21 05:11:38;;;;;;;15.50;11.25;;;13.40;99.90;;;;;;5056059;28;20381;-69
2021/09/21 05:14:04;;;;;;;15.13;11.23;;;13.50;99.90;;;;;;5055691;28;20056;-71
2021/09/21 05:16:30;;;;;;;16.83;12.63;;;13.40;99.90;;;;;;5054654;28;20497;-72
2021/09/21 05:18:55;;;;;;;15.18;12.35;;;13.50;99.90;;;;;;5055479;28;20111;-73
2021/09/21 05:21:21;;;;;;;18.65;11.93;;;13.50;99.90;;;;;;5055819;28;20151;-73
2021/09/21 05:23:47;;;;;;;16.60;11.95;;;13.50;99.90;;;;;;5055858;28;20229;-73
2021/09/21 05:26:15;;;;;;;14.82;11.52;;;13.60;99.90;;;;;;5055966;28;20033;-74
2021/09/21 05:28:41;;;;;;;14.48;11.63;;;13.60;99.90;;;;;;5054096;28;20067;-72
2021/09/21 05:31:07;;;;;;;14.20;11.38;;;13.60;99.90;;;;;;5055533;28;20060;-73
2021/09/21 05:33:33;;;;;;;15.45;11.55;;;13.60;99.90;;;;;;5054236;28;20485;-73
2021/09/21 05:35:59;;;;;;;15.02;10.80;;;13.60;99.90;;;;;;5058789;28;20118;-71
2021/09/21 05:38:25;;;;;;;18.40;12.25;;;13.60;99.90;;;;;;5070608;28;20412;-71
2021/09/21 05:40:50;;;;;;;15.88;11.75;;;13.60;99.90;;;;;;5075270;28;20713;-71
2021/09/21 05:43:16;;;;;;;16.13;11.43;;;13.60;99.90;;;;;;5074268;28;20074;-69
2021/09/21 05:45:42;;;;;;;15.88;11.40;;;13.60;99.90;;;;;;5074028;28;20440;-70
2021/09/21 05:48:08;;;;;;;15.18;11.02;;;13.60;99.90;;;;;;5075005;28;20052;-70
2021/09/21 05:50:34;;;;;;;15.50;12.25;;;13.70;99.90;;;;;;5074723;28;20047;-71
2021/09/21 05:53:00;;;;;;;13.80;10.80;;;13.70;99.90;;;;;;5073736;28;20027;-73
2021/09/21 05:55:28;;;;;;;15.48;11.50;;;13.70;99.90;;;;;;5075191;28;20032;-71
2021/09/21 05:57:54;;;;;;;14.27;11.82;;;13.80;99.90;;;;;;5073434;28;20119;-70
2021/09/21 06:00:20;;;;;;;14.25;10.15;;;13.80;99.90;;;;;;5074729;28;20037;-71
2021/09/21 06:02:46;;;;;;;15.75;10.48;;;13.90;99.90;;;;;;5073141;28;20048;-74
2021/09/21 06:05:12;;;;;;;13.63;10.75;;;13.90;99.90;;;;;;5072526;28;20115;-69
2021/09/21 06:07:51;;;;;;;11.23;9.95;;;13.90;99.90;;;;;;5070562;28;20041;-72
2021/09/21 06:10:19;;;;;;;15.50;10.18;;;14.00;99.90;;;;;;5072355;28;20025;-71
2021/09/21 06:12:46;;;;;;;11.93;10.10;;;14.00;99.90;;;;;;5074156;28;20046;-70
2021/09/21 06:15:14;;;;;;;13.07;10.35;;;14.00;99.90;;;;;;5074158;28;20051;-71
2021/09/21 06:17:41;;;;;;;15.07;11.32;;;14.10;99.90;;;;;;5074625;28;20027;-72
2021/09/21 06:20:09;;;;;;;17.40;11.95;;;14.10;99.90;;;;;;5073282;28;20029;-72
2021/09/21 06:22:39;;;;;;;14.52;11.10;;;14.20;99.90;;;;;;5074641;28;20032;-73
2021/09/21 06:25:06;;;;;;;15.13;10.70;;;;;;;;;;5074476;28;20472;-71
2021/09/21 06:27:32;;;;;;;10.93;9.43;;;14.30;99.90;;;;;;5074423;28;20059;-72
2021/09/21 06:29:58;;;;;;;15.07;10.55;;;14.40;99.90;;;;;;5074403;28;20472;-73
2021/09/21 06:32:24;;;;;;;26.48;16.20;;;14.50;99.90;;;;;;5074242;28;20025;-72
2021/09/21 06:34:50;;;;;;;19.27;13.05;;;14.40;99.90;;;;;;5073008;28;20044;-71
2021/09/21 06:37:16;;;;;;;16.50;11.30;;;14.40;99.90;;;;;;5073001;28;20029;-70
2021/09/21 06:39:42;;;;;;;12.35;9.82;;;14.30;99.90;;;;;;5074375;28;20039;-71
2021/09/21 06:42:08;;;;;;;16.30;11.02;;;14.30;99.90;;;;;;5074523;28;20155;-72
2021/09/21 06:44:34;;;;;;;13.45;9.98;;;14.30;99.90;;;;;;5072950;28;20028;-72
2021/09/21 06:47:00;;;;;;;13.18;10.90;;;14.20;99.90;;;;;;5072792;28;20035;-72
2021/09/21 06:49:26;;;;;;;11.52;8.82;;;14.20;99.90;;;;;;5072519;28;20030;-71
2021/09/21 06:51:53;;;;;;;12.27;9.93;;;14.20;99.90;;;;;;5072725;28;20059;-72
2021/09/21 06:54:19;;;;;;;10.20;9.02;;;14.20;99.90;;;;;;5074043;28;20033;-71
2021/09/21 06:56:44;;;;;;;13.38;9.70;;;14.10;99.90;;;;;;5073896;28;20074;-74
2021/09/21 06:59:10;;;;;;;17.42;9.15;;;14.20;99.90;;;;;;5074253;28;20099;-70
2021/09/21 07:01:36;;;;;;;11.82;9.40;;;14.20;99.90;;;;;;5072890;28;20047;-74
2021/09/21 07:04:02;;;;;;;12.52;9.55;;;14.20;99.90;;;;;;5073943;28;20150;-72
2021/09/21 07:06:28;;;;;;;12.30;9.30;;;14.20;99.90;;;;;;5072491;28;20028;-72
2021/09/21 07:08:54;;;;;;;12.75;9.05;;;14.20;99.90;;;;;;5071923;28;20377;-72
2021/09/21 07:11:21;;;;;;;10.88;8.60;;;14.30;99.90;;;;;;5072331;28;20024;-73
2021/09/21 07:13:47;;;;;;;13.05;8.10;;;14.30;99.90;;;;;;5072469;28;20536;-72
2021/09/21 07:16:13;;;;;;;11.55;8.90;;;14.40;99.90;;;;;;5073403;28;20072;-72
2021/09/21 07:18:39;;;;;;;8.68;7.45;;;14.40;99.90;;;;;;5072139;28;20048;-74
2021/09/21 07:21:05;;;;;;;22.25;14.52;;;14.50;99.90;;;;;;5072227;28;20067;-72
2021/09/21 07:23:32;;;;;;;15.73;9.30;;;14.50;99.90;;;;;;5073568;28;20048;-72
2021/09/21 07:25:58;;;;;;;12.90;9.13;;;14.40;99.90;;;;;;5073659;28;20039;-79
2021/09/21 07:28:24;;;;;;;11.73;9.40;;;14.40;99.90;;;;;;5072001;28;20119;-72
2021/09/21 07:30:50;;;;;;;12.23;9.27;;;14.40;99.90;;;;;;5072971;28;20024;-70
2021/09/21 07:33:16;;;;;;;14.57;11.75;;;14.50;99.90;;;;;;5070953;28;20033;-73
2021/09/21 07:35:43;;;;;;;13.10;9.73;;;14.40;99.90;;;;;;5071836;28;20037;-74
2021/09/21 07:38:10;;;;;;;13.60;9.98;;;14.50;99.90;;;;;;5067415;28;20020;-72
2021/09/21 07:40:36;;;;;;;17.10;11.18;;;14.50;99.90;;;;;;5053307;28;20025;-75
2021/09/21 07:43:03;;;;;;;15.02;11.55;;;14.50;99.90;;;;;;5051947;28;20354;-72
2021/09/21 07:45:29;;;;;;;18.65;10.90;;;14.50;99.90;;;;;;5052924;28;20032;-72
2021/09/21 07:47:55;;;;;;;29.95;20.20;;;14.60;99.90;;;;;;5053067;28;20051;-72
2021/09/21 07:50:22;;;;;;;20.98;13.65;;;14.60;99.90;;;;;;5053014;28;20080;-72
2021/09/21 07:52:48;;;;;;;14.77;9.60;;;14.60;99.90;;;;;;5052004;28;20396;-74
2021/09/21 07:55:15;;;;;;;11.55;8.95;;;14.60;99.90;;;;;;5051554;28;20032;-73
2021/09/21 07:57:42;;;;;;;12.95;9.35;;;14.60;99.90;;;;;;5052520;28;20029;-70
2021/09/21 08:00:10;;;;;;;13.68;10.02;;;14.70;99.90;;;;;;5051594;28;20055;-71
2021/09/21 08:02:36;;;;;;;35.80;11.77;;;14.70;99.90;;;;;;5051762;28;20381;-72
2021/09/21 08:05:02;;;;;;;14.93;9.60;;;14.90;99.90;;;;;;5052673;28;20025;-71
2021/09/21 08:07:29;;;;;;;11.88;9.45;;;14.90;99.90;;;;;;5052418;28;20471;-72
2021/09/21 08:09:55;;;;;;;13.88;10.85;;;14.90;99.90;;;;;;5052630;28;20029;-72
2021/09/21 08:12:21;;;;;;;16.98;12.35;;;14.90;99.90;;;;;;5052636;28;20055;-75
2021/09/21 08:14:50;;;;;;;31.75;17.17;;;14.90;99.90;;;;;;5052610;28;20041;-72
2021/09/21 08:17:16;;;;;;;18.60;12.25;;;15.10;99.90;;;;;;5051385;28;20527;-72
2021/09/21 08:19:42;;;;;;;15.27;10.98;;;15.10;99.90;;;;;;5052502;28;20086;-73
2021/09/21 08:22:08;;;;;;;18.00;14.38;;;15.10;99.90;;;;;;5055908;28;20028;-72
2021/09/21 08:24:34;;;;;;;10.88;9.55;;;15.30;99.90;;;;;;5056722;28;20025;-71
2021/09/21 08:27:00;;;;;;;15.52;10.77;;;15.30;99.90;;;;;;5057088;28;20469;-71
2021/09/21 08:29:26;;;;;;;13.85;9.93;;;15.40;99.90;;;;;;5057096;28;20025;-72
2021/09/21 08:31:52;;;;;;;14.48;8.40;;;15.40;99.90;;;;;;5056469;28;20033;-71
2021/09/21 08:34:18;;;;;;;16.27;11.98;;;15.60;99.90;;;;;;5056664;28;20499;-74
2021/09/21 08:36:44;;;;;;;13.18;11.35;;;15.60;99.90;;;;;;5055456;28;20120;-72
2021/09/21 08:39:10;;;;;;;20.73;15.15;;;15.60;99.90;;;;;;5056357;28;20462;-68
2021/09/21 08:41:36;;;;;;;15.93;11.70;;;15.60;99.90;;;;;;5055225;28;20035;-72
2021/09/21 08:44:03;;;;;;;12.50;9.55;;;15.60;99.90;;;;;;5056990;28;20473;-71
2021/09/21 08:46:30;;;;;;;14.77;11.13;;;15.70;99.90;;;;;;5056358;28;20439;-75
2021/09/21 08:48:56;;;;;;;15.88;12.35;;;15.70;99.90;;;;;;5056608;28;20021;-72
2021/09/21 08:51:22;;;;;;;13.88;10.63;;;15.70;99.90;;;;;;5056621;28;20027;-71
2021/09/21 08:53:48;;;;;;;17.83;11.27;;;15.70;99.90;;;;;;5056219;28;20424;-72
2021/09/21 08:56:14;;;;;;;11.95;10.00;;;15.70;99.90;;;;;;5056093;28;20423;-72
2021/09/21 08:58:40;;;;;;;12.75;8.38;;;15.70;99.90;;;;;;5056064;28;20029;-71
2021/09/21 09:01:15;;;;;;;14.63;9.07;;;15.90;99.90;;;;;;5055323;28;20044;-73
2021/09/21 09:03:53;;;;;;;13.10;9.30;;;15.90;99.90;;;;;;5056342;28;20065;-71
2021/09/21 09:06:19;;;;;;;14.60;10.18;;;15.90;99.90;;;;;;5055046;28;20071;-72
2021/09/21 09:08:45;;;;;;;11.70;8.88;;;15.90;99.90;;;;;;5054657;28;20060;-71
2021/09/21 09:11:17;;;;;;;13.18;8.88;;;16.10;99.90;;;;;;5054818;28;20028;-72
2021/09/21 09:13:44;;;;;;;10.55;9.23;;;16.10;99.90;;;;;;5055892;28;20025;-71
2021/09/21 09:16:15;;;;;;;31.95;10.75;;;;;;;;;;5054538;28;20037;-73
2021/09/21 09:18:42;;;;;;;11.63;8.13;;;;;;;;;;5054567;28;20021;-71
2021/09/21 09:21:08;;;;;;;13.23;7.60;;;16.10;99.90;;;;;;5054440;28;20413;-72
2021/09/21 09:23:34;;;;;;;13.50;7.28;;;16.30;99.90;;;;;;5055750;28;20025;-75
2021/09/21 09:26:00;;;;;;;11.07;7.88;;;16.40;99.90;;;;;;5054359;28;20367;-72
2021/09/21 09:28:27;;;;;;;11.50;8.23;;;16.40;99.90;;;;;;5054405;28;20148;-73
2021/09/21 09:30:55;;;;;;;9.68;8.10;;;16.40;99.90;;;;;;5056134;28;20029;-72
2021/09/21 09:33:24;;;;;;;11.82;7.45;;;16.40;98.80;;;;;;5053843;28;20025;-73
2021/09/21 09:35:51;;;;;;;11.45;8.70;;;16.50;99.50;;;;;;5055287;28;20037;-72
2021/09/21 09:38:21;;;;;;;10.75;7.60;;;16.60;99.60;;;;;;5054212;28;20025;-73
2021/09/21 09:40:52;;;;;;;10.33;7.73;;;;;;;;;;5055602;28;20017;-74
2021/09/21 09:43:22;;;;;;;11.40;7.85;;;16.60;98.30;;;;;;5054177;28;20258;-72
2021/09/21 09:45:51;;;;;;;8.02;6.68;;;16.80;98.80;;;;;;5054089;28;20123;-73
2021/09/21 09:48:24;;;;;;;7.90;6.95;;;16.90;97.80;;;;;;5054044;28;20215;-71
2021/09/21 09:50:53;;;;;;;8.30;6.45;;;17.00;95.60;;;;;;5061386;28;20480;-73
2021/09/21 09:53:23;;;;;;;6.68;5.97;;;17.20;95.70;;;;;;5074598;28;20481;-73
2021/09/21 09:55:55;;;;;;;9.98;7.50;;;17.30;95.90;;;;;;5074926;28;20032;-74
2021/09/21 09:58:21;;;;;;;10.23;6.63;;;17.50;95.70;;;;;;5073485;28;20038;-74
2021/09/21 10:00:54;;;;;;;10.25;7.00;;;17.80;95.20;;;;;;5073603;28;20480;-73
2021/09/21 10:03:21;;;;;;;11.20;7.38;;;17.90;94.60;;;;;;5073706;28;20090;-73
2021/09/21 10:05:50;;;;;;;7.47;6.72;;;17.80;93.00;;;;;;5074906;28;20050;-72
2021/09/21 10:08:16;;;;;;;7.35;6.30;;;18.00;91.40;;;;;;5074742;28;20020;-73
2021/09/21 10:10:42;;;;;;;7.72;6.45;;;18.20;90.60;;;;;;5073335;28;20021;-72
2021/09/21 10:13:11;;;;;;;8.88;6.43;;;18.50;90.50;;;;;;5074040;28;20595;-73
2021/09/21 10:15:40;;;;;;;7.53;6.50;;;18.60;88.20;;;;;;5072458;28;20402;-72
2021/09/21 10:18:13;;;;;;;6.97;6.20;;;19.00;86.70;;;;;;5072055;28;20032;-74
2021/09/21 10:20:44;;;;;;;11.77;8.13;;;19.50;85.80;;;;;;5071834;28;20039;-73
2021/09/21 10:23:11;;;;;;;7.37;5.83;;;19.40;86.20;;;;;;5072772;28;20329;-72
2021/09/21 10:25:40;;;;;;;8.20;5.85;;;19.50;84.00;;;;;;5071802;28;20025;-75
2021/09/21 10:28:21;;;;;;;13.40;5.38;;;19.40;84.20;;;;;;5072710;28;20028;-73
2021/09/21 10:30:57;;;;;;;7.28;5.72;;;19.40;84.70;;;;;;5073065;28;20034;-73
2021/09/21 10:33:25;;;;;;;11.68;6.95;;;19.00;86.10;;;;;;5073051;28;20111;-73
2021/09/21 10:35:52;;;;;;;7.05;6.35;;;19.00;84.30;;;;;;5073954;28;20028;-72
2021/09/21 10:38:19;;;;;;;9.15;6.18;;;18.80;86.40;;;;;;5074251;28;20085;-73
2021/09/21 10:41:01;;;;;;;8.93;6.53;;;20.00;84.30;;;;;;5074369;28;20079;-73
2021/09/21 10:43:30;;;;;;;8.95;6.40;;;20.40;84.70;;;;;;5074027;28;20461;-73
2021/09/21 10:46:26;;;;;;;6.85;5.28;;;;;;;;;;5071984;28;20392;-73
2021/09/21 10:48:57;;;;;;;9.82;6.13;;;22.30;75.30;;;;;;4992149;28;20038;-73
2021/09/21 10:51:23;;;;;;;6.80;5.50;;;22.90;71.50;;;;;;4992426;28;20037;-74
2021/09/21 10:53:58;;;;;;;6.53;5.68;;;;;;;;;;4992321;28;20038;-71
2021/09/21 10:56:25;;;;;;;8.93;4.68;;;;;;;;;;4992336;28;20066;-73
2021/09/21 10:58:52;;;;;;;7.70;4.70;;;;;;;;;;4991926;28;20046;-74
2021/09/21 11:01:18;;;;;;;5.80;4.93;;;21.00;71.20;;;;;;4975730;28;20124;-72
2021/09/21 11:03:43;;;;;;;7.72;5.22;;;20.60;72.40;;;;;;4975787;28;20471;-73
2021/09/21 11:06:09;;;;;;;8.18;5.60;;;21.60;70.30;;;;;;4991895;28;20108;-72
2021/09/21 11:08:36;;;;;;;8.07;4.80;;;;;;;;;;4975569;28;20022;-72
2021/09/21 11:11:04;;;;;;;7.80;5.03;;;23.10;69.70;;;;;;4991894;28;20109;-72
2021/09/21 11:13:40;;;;;;;8.55;4.30;;;23.30;67.80;;;;;;4991773;28;20034;-74
2021/09/21 11:16:08;;;;;;;4.78;3.67;;;24.40;59.70;;;;;;4991581;28;20061;-71
2021/09/21 11:18:36;;;;;;;5.32;4.35;;;25.10;58.90;;;;;;4975515;28;20134;-72
2021/09/21 11:21:06;;;;;;;10.57;4.50;;;25.20;58.90;;;;;;4984427;28;20039;-72
2021/09/21 11:23:36;;;;;;;4.75;3.38;;;26.80;52.80;;;;;;4972335;28;20054;-74
2021/09/21 11:26:04;;;;;;;4.50;3.72;;;27.50;53.10;;;;;;5034795;28;20037;-74
2021/09/21 11:28:31;;;;;;;6.43;3.80;;;;;;;;;;5051789;28;20036;-74
2021/09/21 11:30:58;;;;;;;5.47;3.67;;;25.60;50.90;;;;;;5056765;28;20017;-74
2021/09/21 11:33:26;;;;;;;4.25;3.85;;;;;;;;;;5063767;28;20016;-73
2021/09/21 11:35:56;;;;;;;5.65;3.50;;;23.90;54.00;;;;;;5052718;28;20039;-71
2021/09/21 11:38:23;;;;;;;5.88;3.95;;;;;;;;;;5052992;28;20031;-73
2021/09/21 11:40:51;;;;;;;4.95;3.22;;;21.10;61.20;;;;;;5053113;28;20095;-73
2021/09/21 11:43:17;;;;;;;9.15;3.00;;;20.50;61.50;;;;;;5052923;28;20458;-73
2021/09/21 11:45:47;;;;;;;3.45;2.95;;;20.00;61.20;;;;;;5051920;28;20029;-71
2021/09/21 11:48:14;;;;;;;3.40;2.90;;;19.70;62.10;;;;;;5051596;28;20040;-74
2021/09/21 11:50:41;;;;;;;3.63;2.65;;;19.40;61.60;;;;;;5051303;28;20029;-71
2021/09/21 11:53:10;;;;;;;4.95;2.20;;;19.30;62.20;;;;;;5052811;28;20513;-73
2021/09/21 11:55:38;;;;;;;4.22;2.25;;;19.30;62.10;;;;;;5052420;28;20037;-74
2021/09/21 11:58:05;;;;;;;2.50;2.30;;;19.20;61.50;;;;;;5052836;28;20051;-73
2021/09/21 12:00:34;;;;;;;2.58;2.00;;;19.20;60.10;;;;;;5061279;28;20028;-72
2021/09/21 12:03:05;;;;;;;3.83;2.47;;;19.30;61.20;;;;;;5071490;28;20461;-71
2021/09/21 12:05:32;;;;;;;;;;;19.30;61.50;;;;;;5071728;28;20554;-73
2021/09/21 12:08:01;;;;;;;3.33;2.45;;;19.60;60.00;;;;;;5072602;28;19908;-74
2021/09/21 12:10:28;;;;;;;2.42;2.22;;;23.10;56.80;;;;;;5061434;28;20385;-72
2021/09/21 12:13:02;;;;;;;2.78;2.30;;;;;;;;;;5052758;28;20025;-71
2021/09/21 12:15:29;;;;;;;3.10;1.90;;;22.10;53.10;;;;;;5088155;28;20052;-71
2021/09/21 12:17:58;;;;;;;3.75;2.20;;;21.90;54.70;;;;;;5074665;28;20044;-75
2021/09/21 12:20:26;;;;;;;5.47;2.60;;;21.30;56.00;;;;;;5092734;28;20036;-72
2021/09/21 12:22:53;;;;;;;4.60;2.63;;;21.10;57.00;;;;;;5092757;28;20024;-69
2021/09/21 12:25:22;;;;;;;2.60;2.22;;;21.20;58.60;;;;;;5074672;28;20029;-71
2021/09/21 12:27:55;;;;;;;5.10;2.40;;;21.30;57.90;;;;;;5092544;28;20020;-70
2021/09/21 12:30:27;;;;;;;2.10;2.00;;;21.10;57.00;;;;;;5092618;28;20031;-71
2021/09/21 12:33:04;;;;;;;2.55;1.92;;;20.80;56.60;;;;;;5074324;28;20024;-72
2021/09/21 12:35:33;;;;;;;5.32;2.35;;;20.30;57.20;;;;;;5073677;28;20024;-73
2021/09/21 12:38:14;;;;;;;5.40;2.53;;;20.20;58.60;;;;;;5091527;28;20493;-72
2021/09/21 12:40:55;;;;;;;3.83;2.15;;;;;;;;;;5092655;28;20106;-70
2021/09/21 12:43:27;;;;;;;4.82;2.65;;;19.80;59.30;;;;;;5092638;28;20031;-73
2021/09/21 12:45:57;;;;;;;3.63;2.53;;;19.50;60.30;;;;;;5074558;28;20036;-74
2021/09/21 12:48:38;;;;;;;3.15;2.35;;;19.40;61.40;;;;;;5055581;28;20021;-72
2021/09/21 12:51:07;;;;;;;4.68;2.35;;;19.20;60.50;;;;;;5072466;28;20059;-74
2021/09/21 12:53:34;;;;;;;3.10;1.92;;;19.10;61.20;;;;;;5072244;28;20477;-73